Terminal Aerodrome Forecast
Issued by NWS

Home | Current Version | Previous Version | Text Only | Print | Product List | Glossary On
Versions: 1 2 3 4 5 6 7 8 9 10 11 12 13 14
000
FTUS42 KMLB 240523
TAFTIX
TAF
KTIX 240523Z 2406/2506 09009KT P6SM FEW020 SCT040
     FM241400 09012KT P6SM FEW015 SCT035
     FM241900 11013G20KT P6SM FEW030 SCT040
     FM250000 10012KT P6SM FEW030 SCT250
      AMD NOT SKED TIL 241200=

USA.gov is the U.S. government's official web portal to all federal, state and local government web resources and services.